Time;durP1;ratioP1;P1;durP2;ratioP2;P2;SDS_P1;SDS_P2;PMS_P1;PMS_P2;Temp;Humidity;BMP_temperature;BMP_pressure;BME280_temperature;BME280_humidity;BME280_pressure;Samples;Min_cycle;Max_cycle;Signal;HPM_P1;HPM_P2
2021/12/26 00:01:36;;;;;;;5.80;2.05;;;-3.80;92.60;;;;;;5011613;28;20034;-83
2021/12/26 00:04:03;;;;;;;7.25;1.77;;;-3.80;92.30;;;;;;5010232;28;20626;-84
2021/12/26 00:06:29;;;;;;;5.55;1.90;;;-3.80;92.50;;;;;;4995268;28;20083;-84
2021/12/26 00:08:57;;;;;;;5.43;1.77;;;-3.80;92.20;;;;;;5027258;28;20038;-84
2021/12/26 00:11:24;;;;;;;6.80;2.25;;;-3.80;92.00;;;;;;4994999;28;20037;-84
2021/12/26 00:13:52;;;;;;;6.80;2.00;;;-3.80;91.80;;;;;;5027380;28;20050;-83
2021/12/26 00:16:18;;;;;;;5.95;1.75;;;-3.80;92.00;;;;;;4995106;28;20042;-84
2021/12/26 00:18:46;;;;;;;6.07;1.80;;;-3.80;91.70;;;;;;4994534;28;20045;-84
2021/12/26 00:21:14;;;;;;;5.13;1.70;;;-3.90;91.90;;;;;;5011619;28;20046;-84
2021/12/26 00:23:40;;;;;;;7.65;2.05;;;-3.90;92.00;;;;;;5010699;28;20104;-84
2021/12/26 00:26:06;;;;;;;5.93;2.08;;;-3.90;92.00;;;;;;4994816;28;20487;-84
2021/12/26 00:28:31;;;;;;;6.13;2.17;;;-3.90;92.00;;;;;;5010879;28;20100;-84
2021/12/26 00:30:57;;;;;;;6.28;1.83;;;-3.90;92.10;;;;;;4994073;28;20037;-84
2021/12/26 00:33:24;;;;;;;8.07;2.00;;;-3.90;92.30;;;;;;4994329;28;20362;-84
2021/12/26 00:35:51;;;;;;;5.43;1.80;;;-4.00;91.90;;;;;;5027503;28;20041;-84
2021/12/26 00:38:17;;;;;;;7.53;2.33;;;-3.90;91.70;;;;;;5027171;28;20534;-84
2021/12/26 00:40:43;;;;;;;5.90;2.35;;;-3.90;91.50;;;;;;4994453;28;20726;-84
2021/12/26 00:43:09;;;;;;;6.15;2.28;;;-3.90;91.60;;;;;;4994537;28;20091;-84
2021/12/26 00:45:36;;;;;;;6.30;1.92;;;-4.00;91.70;;;;;;4994252;28;20546;-84
2021/12/26 00:48:02;;;;;;;8.88;3.45;;;-4.00;91.40;;;;;;5026918;28;20455;-84
2021/12/26 00:50:30;;;;;;;6.63;1.90;;;-4.00;91.40;;;;;;5027340;28;20034;-84
2021/12/26 00:52:58;;;;;;;5.35;2.00;;;-4.00;91.10;;;;;;5011204;28;20099;-84
2021/12/26 00:55:23;;;;;;;5.13;1.77;;;-4.00;91.00;;;;;;4994057;28;20160;-84
2021/12/26 00:57:50;;;;;;;6.35;2.10;;;-4.00;91.20;;;;;;5017068;28;20188;-84
2021/12/26 01:00:25;;;;;;;5.35;1.85;;;-4.00;91.30;;;;;;4993756;28;20034;-84
2021/12/26 01:02:52;;;;;;;6.13;2.00;;;-4.00;91.10;;;;;;5009873;28;20038;-84
2021/12/26 01:05:19;;;;;;;7.23;2.13;;;-4.00;90.90;;;;;;5010210;28;20087;-84
2021/12/26 01:10:22;;;;;;;6.20;2.05;;;-4.00;90.70;;;;;;5009758;28;20126;-84
2021/12/26 01:12:49;;;;;;;6.68;2.60;;;-4.00;90.90;;;;;;4994240;28;20073;-84
2021/12/26 01:15:16;;;;;;;7.95;2.70;;;-4.00;90.40;;;;;;5009919;28;20041;-84
2021/12/26 01:17:44;;;;;;;7.70;2.47;;;-4.00;90.30;;;;;;5010289;28;20042;-84
2021/12/26 01:20:14;;;;;;;9.57;3.20;;;-4.00;90.30;;;;;;5010194;28;20096;-84
2021/12/26 01:22:40;;;;;;;8.17;2.20;;;-4.10;90.20;;;;;;5010431;28;20042;-84
2021/12/26 01:25:07;;;;;;;8.23;3.13;;;-4.10;90.10;;;;;;5009962;28;20593;-84
2021/12/26 01:27:33;;;;;;;9.48;3.20;;;-4.10;90.10;;;;;;5010086;28;20037;-84
2021/12/26 01:29:59;;;;;;;10.40;3.08;;;-4.10;90.00;;;;;;5009476;28;20049;-83
2021/12/26 01:32:26;;;;;;;6.70;2.13;;;-4.10;90.10;;;;;;5010297;28;20046;-83
2021/12/26 01:34:51;;;;;;;7.95;2.80;;;-4.10;90.00;;;;;;5008926;28;20410;-83
2021/12/26 01:37:17;;;;;;;7.70;2.45;;;-4.10;90.00;;;;;;5009673;28;20042;-83
2021/12/26 01:39:43;;;;;;;8.82;2.33;;;-4.10;90.00;;;;;;5009771;28;20050;-83
2021/12/26 01:42:10;;;;;;;7.05;2.25;;;-4.10;90.00;;;;;;5010006;28;20048;-83
2021/12/26 01:44:37;;;;;;;5.83;1.83;;;-4.10;89.90;;;;;;5009990;28;20457;-83
2021/12/26 01:47:03;;;;;;;6.23;2.00;;;-4.10;90.10;;;;;;5009936;28;20042;-84
2021/12/26 01:49:31;;;;;;;6.50;2.20;;;-4.10;89.90;;;;;;5009705;28;20605;-84
2021/12/26 01:52:00;;;;;;;7.70;2.10;;;-4.10;89.60;;;;;;5009797;28;20041;-84
2021/12/26 01:54:46;;;;;;;6.17;1.70;;;-4.10;89.40;;;;;;5009660;28;20092;-84
2021/12/26 01:57:16;;;;;;;5.78;1.80;;;-4.10;89.10;;;;;;5009875;28;20034;-84
2021/12/26 01:59:42;;;;;;;6.83;1.83;;;-4.20;89.20;;;;;;5009589;28;20042;-84
2021/12/26 02:02:09;;;;;;;7.23;1.97;;;-4.20;89.10;;;;;;5009267;28;20065;-84
2021/12/26 02:04:39;;;;;;;8.00;2.00;;;-4.20;89.00;;;;;;4992559;28;20040;-84
2021/12/26 02:07:07;;;;;;;6.00;2.10;;;-4.20;89.90;;;;;;5010190;28;20407;-83
2021/12/26 02:09:34;;;;;;;6.90;2.07;;;-4.20;89.80;;;;;;4992332;28;20038;-83
2021/12/26 02:12:00;;;;;;;5.57;1.70;;;-4.20;90.10;;;;;;4994063;28;20070;-83
2021/12/26 02:14:26;;;;;;;7.22;2.10;;;-4.30;90.10;;;;;;4992849;28;20070;-84
2021/12/26 02:16:51;;;;;;;7.30;2.30;;;-4.30;90.10;;;;;;4987757;28;20074;-84
2021/12/26 02:19:17;;;;;;;6.40;1.92;;;-4.30;90.10;;;;;;4973851;28;20031;-84
2021/12/26 02:22:01;;;;;;;6.43;2.13;;;-4.30;90.20;;;;;;5003112;28;20702;-84
2021/12/26 02:25:24;;;;;;;6.15;1.90;;;-4.30;90.10;;;;;;5009180;28;20038;-84
2021/12/26 02:27:31;;;;;;;7.63;2.10;;;-4.30;90.10;;;;;;5006677;28;20045;-84
2021/12/26 02:30:06;;;;;;;6.73;2.20;;;-4.30;89.80;;;;;;5009131;28;20038;-84
2021/12/26 02:32:32;;;;;;;7.07;1.90;;;-4.30;90.00;;;;;;4993030;28;20446;-84
2021/12/26 02:34:58;;;;;;;7.30;2.30;;;-4.30;90.10;;;;;;5025826;28;20120;-84
2021/12/26 02:37:24;;;;;;;9.63;2.28;;;-4.30;90.00;;;;;;5009422;28;20403;-84
2021/12/26 02:39:50;;;;;;;7.27;1.80;;;-4.30;89.90;;;;;;4992768;28;20038;-84
2021/12/26 02:42:21;;;;;;;5.60;2.10;;;-4.30;89.90;;;;;;4993431;28;20033;-84
2021/12/26 02:44:47;;;;;;;4.97;1.90;;;-4.30;90.10;;;;;;5026071;28;20152;-84
2021/12/26 02:47:14;;;;;;;5.88;1.92;;;-4.30;90.00;;;;;;5027764;28;20053;-84
2021/12/26 02:49:40;;;;;;;8.47;2.23;;;-4.30;90.00;;;;;;4996261;28;20045;-84
2021/12/26 02:52:06;;;;;;;6.67;1.87;;;-4.30;90.00;;;;;;4996520;28;20564;-84
2021/12/26 02:54:32;;;;;;;5.53;2.13;;;-4.30;89.80;;;;;;4996043;28;20034;-84
2021/12/26 02:56:57;;;;;;;5.60;1.90;;;-4.30;89.80;;;;;;4996688;28;20125;-84
2021/12/26 02:59:23;;;;;;;7.80;2.33;;;-4.30;89.40;;;;;;4995970;28;20070;-84
2021/12/26 03:01:49;;;;;;;6.13;2.10;;;-4.30;89.60;;;;;;5028829;28;20040;-84
2021/12/26 03:04:14;;;;;;;6.37;2.10;;;-4.30;89.50;;;;;;5018937;28;20034;-83
2021/12/26 03:06:55;;;;;;;6.00;2.10;;;-4.30;89.50;;;;;;5012969;28;20466;-84
2021/12/26 03:09:21;;;;;;;6.37;2.40;;;-4.30;89.20;;;;;;5012531;28;20050;-84
2021/12/26 03:11:47;;;;;;;7.03;2.87;;;-4.40;88.90;;;;;;5012318;28;20092;-84
2021/12/26 03:14:13;;;;;;;7.77;2.57;;;-4.40;88.70;;;;;;4995868;28;20049;-84
2021/12/26 03:16:46;;;;;;;7.53;2.60;;;-4.40;88.90;;;;;;4995747;28;20045;-84
2021/12/26 03:19:12;;;;;;;6.50;2.27;;;-4.40;89.20;;;;;;5012296;28;20037;-84
2021/12/26 03:21:38;;;;;;;7.50;2.97;;;-4.40;89.20;;;;;;5012499;28;20092;-84
2021/12/26 03:24:04;;;;;;;7.47;2.37;;;-4.40;88.90;;;;;;5012224;28;20468;-83
2021/12/26 03:26:29;;;;;;;5.83;2.37;;;-4.40;89.10;;;;;;4996268;28;20046;-83
2021/12/26 03:28:55;;;;;;;9.50;2.57;;;-4.40;89.30;;;;;;5012491;28;20050;-84
2021/12/26 03:31:20;;;;;;;7.03;2.93;;;-4.40;89.30;;;;;;5011936;28;20088;-84
2021/12/26 03:33:46;;;;;;;5.73;2.33;;;-4.40;89.20;;;;;;4995670;28;20073;-83
2021/12/26 03:36:12;;;;;;;7.07;2.53;;;-4.40;89.10;;;;;;5011728;28;20128;-83
2021/12/26 03:38:37;;;;;;;8.30;3.23;;;-4.40;89.10;;;;;;5011933;28;20073;-83
2021/12/26 03:41:03;;;;;;;6.80;2.53;;;-4.40;89.00;;;;;;5011638;28;20049;-84
2021/12/26 03:43:29;;;;;;;6.93;2.60;;;-4.40;88.80;;;;;;5011537;28;20045;-83
2021/12/26 03:45:55;;;;;;;6.50;2.57;;;-4.40;88.60;;;;;;5011965;28;20103;-84
2021/12/26 03:48:23;;;;;;;7.73;2.80;;;-4.40;88.30;;;;;;5011696;28;20042;-83
2021/12/26 03:50:49;;;;;;;7.33;2.80;;;-4.40;88.10;;;;;;5011733;28;20037;-83
2021/12/26 03:53:16;;;;;;;7.10;2.30;;;-4.40;87.90;;;;;;5011349;28;20522;-83
2021/12/26 03:55:42;;;;;;;6.80;2.37;;;-4.40;88.10;;;;;;5011361;28;20045;-83
2021/12/26 03:58:07;;;;;;;7.30;2.50;;;-4.40;87.80;;;;;;5010494;28;20061;-84
2021/12/26 04:00:34;;;;;;;6.80;2.33;;;-4.40;88.20;;;;;;4995048;28;20065;-84
2021/12/26 04:03:00;;;;;;;7.78;2.72;;;-4.40;88.00;;;;;;5009260;28;20042;-83
2021/12/26 04:05:26;;;;;;;6.73;2.77;;;-4.40;88.20;;;;;;5011087;28;20042;-83
2021/12/26 04:07:52;;;;;;;8.37;2.67;;;-4.40;88.40;;;;;;5011566;28;20065;-83
2021/12/26 04:10:20;;;;;;;8.50;2.93;;;-4.40;88.20;;;;;;4994585;28;20038;-84
2021/12/26 04:12:48;;;;;;;7.20;2.60;;;-4.40;88.30;;;;;;5011171;28;20065;-83
2021/12/26 04:15:19;;;;;;;7.00;2.60;;;-4.40;88.70;;;;;;5011116;28;20059;-83
2021/12/26 04:17:45;;;;;;;8.40;2.85;;;-4.40;88.60;;;;;;5011719;28;20056;-83
2021/12/26 04:20:11;;;;;;;7.53;2.63;;;-4.40;88.40;;;;;;5011588;28;20120;-83
2021/12/26 04:22:37;;;;;;;8.00;2.40;;;-4.40;88.60;;;;;;5011256;28;20129;-83
2021/12/26 04:25:04;;;;;;;8.53;2.83;;;-4.40;88.30;;;;;;5010612;28;20141;-83
2021/12/26 04:27:29;;;;;;;8.47;2.80;;;-4.40;88.50;;;;;;4994785;28;20052;-83
2021/12/26 04:29:55;;;;;;;6.60;2.83;;;-4.40;87.80;;;;;;5010698;28;20038;-83
2021/12/26 04:32:21;;;;;;;7.60;2.60;;;-4.30;87.80;;;;;;5011221;28;20064;-83
2021/12/26 04:34:48;;;;;;;8.87;2.97;;;-4.30;87.90;;;;;;5010777;28;20034;-83
2021/12/26 04:37:13;;;;;;;6.63;2.80;;;-4.30;87.90;;;;;;4994398;28;20100;-83
2021/12/26 04:39:39;;;;;;;8.83;2.80;;;-4.30;87.90;;;;;;5010814;28;20053;-83
2021/12/26 04:42:06;;;;;;;7.43;2.53;;;-4.30;87.90;;;;;;5011007;28;20070;-83
2021/12/26 04:44:31;;;;;;;9.30;3.10;;;-4.40;88.10;;;;;;5010421;28;20038;-83
2021/12/26 04:46:57;;;;;;;6.83;2.73;;;-4.30;88.50;;;;;;5010843;28;20045;-83
2021/12/26 04:49:23;;;;;;;8.63;3.00;;;-4.40;88.00;;;;;;4994137;28;20104;-83
2021/12/26 04:51:48;;;;;;;9.03;3.20;;;-4.30;88.10;;;;;;5010520;28;20041;-83
2021/12/26 04:54:14;;;;;;;7.07;2.70;;;-4.40;88.00;;;;;;4993966;28;20050;-83
2021/12/26 04:56:40;;;;;;;7.90;2.90;;;-4.40;87.90;;;;;;5010591;28;20041;-83
2021/12/26 04:59:06;;;;;;;7.70;2.80;;;-4.40;88.10;;;;;;4994181;28;20038;-83
2021/12/26 05:01:32;;;;;;;8.77;2.90;;;-4.40;87.90;;;;;;5010473;28;20037;-83
2021/12/26 05:03:58;;;;;;;8.83;3.27;;;-4.40;87.80;;;;;;4989305;28;20036;-83
2021/12/26 05:06:26;;;;;;;8.43;3.10;;;-4.30;87.90;;;;;;4990778;28;20070;-83
2021/12/26 05:08:52;;;;;;;8.40;3.43;;;-4.40;88.10;;;;;;4974700;28;20042;-83
2021/12/26 05:11:18;;;;;;;8.07;2.60;;;-4.40;88.00;;;;;;4990589;28;20456;-83
2021/12/26 05:13:43;;;;;;;8.70;2.47;;;-4.40;87.80;;;;;;4990555;28;20045;-83
2021/12/26 05:16:09;;;;;;;6.93;2.50;;;-4.40;87.50;;;;;;4974580;28;20046;-83
2021/12/26 05:18:35;;;;;;;8.20;3.03;;;-4.40;87.50;;;;;;4990234;28;20038;-83
2021/12/26 05:21:00;;;;;;;6.87;2.50;;;-4.40;87.40;;;;;;4990483;28;20078;-83
2021/12/26 05:23:26;;;;;;;7.57;2.90;;;-4.40;87.30;;;;;;4974017;28;20038;-83
2021/12/26 05:25:51;;;;;;;9.53;2.87;;;-4.40;87.10;;;;;;4990503;28;20072;-83
2021/12/26 05:28:17;;;;;;;8.17;3.30;;;-4.40;87.20;;;;;;4973982;28;20071;-83
2021/12/26 05:30:43;;;;;;;8.50;3.07;;;-4.40;87.10;;;;;;4990390;28;20046;-83
2021/12/26 05:33:08;;;;;;;8.13;3.30;;;-4.40;87.00;;;;;;4974300;28;20042;-83
2021/12/26 05:35:34;;;;;;;9.60;3.13;;;-4.40;86.80;;;;;;4974471;28;20488;-83
2021/12/26 05:38:00;;;;;;;7.70;3.10;;;-4.40;86.90;;;;;;4974522;28;20711;-83
2021/12/26 05:40:26;;;;;;;7.63;2.90;;;-4.40;86.80;;;;;;4990489;28;20125;-83
2021/12/26 05:42:52;;;;;;;9.43;3.70;;;-4.40;86.60;;;;;;4974441;28;20474;-83
2021/12/26 05:45:18;;;;;;;8.43;2.83;;;-4.40;86.30;;;;;;4990311;28;20074;-83
2021/12/26 05:47:44;;;;;;;7.77;3.07;;;-4.40;86.30;;;;;;4973875;28;20065;-83
2021/12/26 05:50:13;;;;;;;8.57;3.13;;;-4.40;86.50;;;;;;4973838;28;20081;-83
2021/12/26 05:52:39;;;;;;;8.13;3.50;;;-4.40;86.30;;;;;;4990262;28;20069;-84
2021/12/26 05:55:06;;;;;;;7.77;2.80;;;-4.40;86.50;;;;;;4973918;28;20492;-83
2021/12/26 05:57:32;;;;;;;7.73;2.83;;;-4.40;86.60;;;;;;4974234;28;20038;-83
2021/12/26 05:59:58;;;;;;;8.47;3.60;;;-4.40;86.50;;;;;;4973777;28;20153;-83
2021/12/26 06:02:24;;;;;;;8.07;3.03;;;-4.40;86.60;;;;;;4974044;28;20173;-83
2021/12/26 06:04:49;;;;;;;9.40;3.53;;;-4.40;86.60;;;;;;5006267;28;20469;-83
2021/12/26 06:07:15;;;;;;;9.63;2.93;;;-4.40;86.40;;;;;;5010238;28;20049;-83
2021/12/26 06:09:41;;;;;;;8.53;3.00;;;-4.40;86.20;;;;;;4993298;28;20123;-83
2021/12/26 06:12:08;;;;;;;8.17;2.90;;;-4.40;86.40;;;;;;4993393;28;20089;-83
2021/12/26 06:14:33;;;;;;;8.13;2.95;;;-4.40;86.20;;;;;;4993217;28;20037;-83
2021/12/26 06:16:59;;;;;;;11.47;3.63;;;-4.40;86.40;;;;;;4993133;28;20545;-84
2021/12/26 06:19:24;;;;;;;8.93;3.63;;;-4.40;86.30;;;;;;4993162;28;20038;-83
2021/12/26 06:21:50;;;;;;;8.13;3.00;;;-4.40;86.50;;;;;;5009925;28;20042;-83
2021/12/26 06:24:16;;;;;;;9.83;3.20;;;-4.40;86.50;;;;;;5029495;28;20044;-83
2021/12/26 06:26:42;;;;;;;7.00;2.67;;;-4.40;87.00;;;;;;5013363;28;20100;-83
2021/12/26 06:29:07;;;;;;;7.70;3.15;;;-4.40;87.50;;;;;;5029649;28;20157;-83
2021/12/26 06:31:34;;;;;;;7.33;3.13;;;-4.40;87.10;;;;;;4997200;28;20499;-83
2021/12/26 06:34:00;;;;;;;9.30;3.00;;;-4.40;87.30;;;;;;4996654;28;20103;-83
2021/12/26 06:36:26;;;;;;;8.33;3.00;;;-4.40;86.90;;;;;;5011776;28;20442;-83
2021/12/26 06:38:51;;;;;;;8.00;3.50;;;-4.40;86.60;;;;;;5013273;28;20100;-83
2021/12/26 06:41:17;;;;;;;8.27;3.43;;;-4.40;86.60;;;;;;4996749;28;20045;-83
2021/12/26 06:43:43;;;;;;;9.50;4.00;;;-4.40;87.10;;;;;;5012521;28;20034;-84
2021/12/26 06:46:10;;;;;;;9.60;3.23;;;-4.40;87.10;;;;;;5013038;28;20033;-84
2021/12/26 06:48:38;;;;;;;7.93;3.10;;;-4.40;87.30;;;;;;5012895;28;20045;-84
2021/12/26 06:51:05;;;;;;;8.93;3.20;;;-4.40;87.30;;;;;;5012641;28;20120;-84
2021/12/26 06:53:30;;;;;;;10.90;3.73;;;-4.40;87.30;;;;;;5012535;28;20042;-84
2021/12/26 06:55:56;;;;;;;8.90;3.30;;;-4.50;87.20;;;;;;5012473;28;20037;-83
2021/12/26 06:58:22;;;;;;;11.20;3.67;;;-4.40;87.60;;;;;;5012426;28;20074;-83
2021/12/26 07:00:47;;;;;;;9.17;3.60;;;-4.40;87.80;;;;;;5012212;28;20037;-83
2021/12/26 07:03:13;;;;;;;9.53;3.50;;;-4.40;87.40;;;;;;4994870;28;20120;-84
2021/12/26 07:05:40;;;;;;;8.27;3.17;;;-4.50;87.50;;;;;;5012776;28;20034;-83
2021/12/26 07:08:06;;;;;;;9.93;3.83;;;-4.40;87.40;;;;;;4996222;28;20045;-83
2021/12/26 07:10:32;;;;;;;7.80;3.43;;;-4.50;87.50;;;;;;4996366;28;20132;-83
2021/12/26 07:12:57;;;;;;;7.13;3.37;;;-4.40;87.40;;;;;;4995703;28;20165;-82
2021/12/26 07:15:23;;;;;;;9.73;4.80;;;-4.50;87.60;;;;;;4993776;28;20099;-83
2021/12/26 07:17:49;;;;;;;8.60;3.33;;;-4.40;87.50;;;;;;4995744;28;20034;-83
2021/12/26 07:20:15;;;;;;;8.30;3.33;;;-4.50;87.30;;;;;;4995253;28;20038;-82
2021/12/26 07:22:42;;;;;;;7.80;3.10;;;-4.40;87.50;;;;;;5012487;28;20038;-83
2021/12/26 07:25:09;;;;;;;9.10;3.10;;;-4.50;87.80;;;;;;5011573;28;20491;-83
2021/12/26 07:27:34;;;;;;;8.50;3.57;;;-4.50;88.40;;;;;;5012468;28;20131;-83
2021/12/26 07:30:03;;;;;;;9.00;3.40;;;-4.50;88.40;;;;;;5012057;28;20554;-84
2021/12/26 07:32:30;;;;;;;7.10;3.30;;;-4.50;88.40;;;;;;5011781;28;20046;-84
2021/12/26 07:34:57;;;;;;;9.23;5.53;;;-4.50;88.30;;;;;;5011726;28;20045;-84
2021/12/26 07:37:23;;;;;;;8.53;4.03;;;-4.50;88.30;;;;;;5011393;28;20049;-83
2021/12/26 07:39:49;;;;;;;8.13;3.00;;;-4.50;89.00;;;;;;4995095;28;20448;-83
2021/12/26 07:42:15;;;;;;;10.17;3.67;;;-4.50;89.20;;;;;;4994946;28;20123;-83
2021/12/26 07:44:40;;;;;;;9.30;3.50;;;-4.50;89.30;;;;;;4995063;28;20041;-84
2021/12/26 07:47:06;;;;;;;8.97;3.57;;;-4.50;89.40;;;;;;5011523;28;20392;-84
2021/12/26 07:49:32;;;;;;;9.93;4.27;;;-4.50;89.40;;;;;;5011082;28;20407;-84
2021/12/26 07:51:58;;;;;;;8.73;3.50;;;-4.50;89.70;;;;;;5010969;28;20092;-83
2021/12/26 07:54:24;;;;;;;9.20;3.17;;;-4.50;90.30;;;;;;4994412;28;20529;-84
2021/12/26 07:56:51;;;;;;;8.77;3.63;;;-4.40;89.60;;;;;;5008515;28;20045;-83
2021/12/26 07:59:17;;;;;;;8.53;3.60;;;-4.40;89.20;;;;;;5010937;28;20033;-83
2021/12/26 08:01:43;;;;;;;9.70;3.47;;;-4.40;89.40;;;;;;5010956;28;20034;-83
2021/12/26 08:04:11;;;;;;;10.17;3.30;;;-4.40;89.30;;;;;;4993138;28;20052;-84
2021/12/26 08:06:37;;;;;;;8.35;3.60;;;-4.40;89.30;;;;;;5011638;28;20415;-83
2021/12/26 08:09:05;;;;;;;9.00;3.80;;;-4.40;89.70;;;;;;5011537;28;20057;-84
2021/12/26 08:11:31;;;;;;;9.20;3.83;;;-4.40;89.50;;;;;;4995050;28;20053;-84
2021/12/26 08:13:57;;;;;;;9.90;3.83;;;-4.30;89.40;;;;;;4994703;28;20121;-84
2021/12/26 08:16:23;;;;;;;9.93;4.35;;;-4.30;89.30;;;;;;5010479;28;20049;-83
2021/12/26 08:18:49;;;;;;;8.23;3.78;;;-4.30;89.80;;;;;;5010997;28;20037;-84
2021/12/26 08:21:15;;;;;;;7.93;3.70;;;-4.30;89.70;;;;;;4994844;28;20554;-84
2021/12/26 08:23:40;;;;;;;11.27;5.13;;;-4.20;89.40;;;;;;5010661;28;20126;-83
2021/12/26 08:26:06;;;;;;;9.23;3.65;;;-4.20;89.40;;;;;;5011213;28;20046;-84
2021/12/26 08:28:31;;;;;;;9.90;3.87;;;-4.20;89.20;;;;;;4994630;28;20415;-84
2021/12/26 08:30:57;;;;;;;10.23;4.13;;;-4.20;89.20;;;;;;5010800;28;20049;-84
2021/12/26 08:33:23;;;;;;;11.88;5.22;;;-4.10;89.50;;;;;;4994513;28;20503;-84
2021/12/26 08:35:49;;;;;;;11.77;4.47;;;-4.10;89.60;;;;;;5010635;28;20041;-84
2021/12/26 08:38:18;;;;;;;10.25;3.85;;;-4.10;89.40;;;;;;4995072;28;20450;-84
2021/12/26 08:40:44;;;;;;;10.10;4.07;;;-4.10;89.50;;;;;;5010490;28;20120;-84
2021/12/26 08:43:09;;;;;;;9.13;3.83;;;-4.00;89.20;;;;;;5010692;28;20355;-84
2021/12/26 08:45:37;;;;;;;8.57;3.60;;;-4.00;89.10;;;;;;4994705;28;20123;-83
2021/12/26 08:48:03;;;;;;;10.98;4.30;;;-4.00;89.40;;;;;;5011244;28;20039;-84
2021/12/26 08:50:28;;;;;;;9.30;3.60;;;-3.90;89.20;;;;;;5010549;28;20048;-84
2021/12/26 08:52:55;;;;;;;10.73;4.13;;;-3.90;88.90;;;;;;5010702;28;20124;-83
2021/12/26 08:55:23;;;;;;;8.77;3.53;;;-3.90;88.80;;;;;;5010346;28;20085;-83
2021/12/26 08:57:50;;;;;;;9.00;4.20;;;-3.80;88.60;;;;;;4994337;28;20099;-84
2021/12/26 09:00:16;;;;;;;12.07;3.97;;;-3.80;88.40;;;;;;5010094;28;20080;-84
2021/12/26 09:02:42;;;;;;;9.00;4.40;;;-3.70;88.40;;;;;;4993651;28;20046;-84
2021/12/26 09:05:09;;;;;;;8.98;3.95;;;-3.70;88.60;;;;;;5009480;28;20049;-83
2021/12/26 09:07:35;;;;;;;9.35;3.90;;;-3.60;88.70;;;;;;5010937;28;20124;-83
2021/12/26 09:10:01;;;;;;;9.38;4.05;;;-3.60;88.20;;;;;;4993987;28;20539;-84
2021/12/26 09:12:27;;;;;;;10.07;4.05;;;-3.50;88.10;;;;;;5010562;28;20084;-84
2021/12/26 09:14:53;;;;;;;9.02;3.50;;;-3.50;87.90;;;;;;5009832;28;20038;-83
2021/12/26 09:17:19;;;;;;;8.35;3.78;;;-3.40;87.90;;;;;;5009864;28;20150;-83
2021/12/26 09:19:44;;;;;;;9.07;4.13;;;-3.30;88.10;;;;;;5009606;28;20121;-84
2021/12/26 09:22:15;;;;;;;8.88;3.70;;;-3.30;88.30;;;;;;5009491;28;20081;-84
2021/12/26 09:24:42;;;;;;;10.52;4.00;;;-3.20;88.20;;;;;;5008811;28;20057;-83
2021/12/26 09:27:07;;;;;;;10.75;4.57;;;-3.10;88.80;;;;;;5009241;28;20038;-84
2021/12/26 09:29:33;;;;;;;10.30;4.25;;;-3.00;88.50;;;;;;5009695;28;20052;-83
2021/12/26 09:32:02;;;;;;;9.63;3.97;;;-3.00;88.20;;;;;;5009006;28;20053;-84
2021/12/26 09:34:29;;;;;;;9.73;4.10;;;-2.90;88.10;;;;;;5009244;28;20372;-84
2021/12/26 09:36:55;;;;;;;9.90;4.20;;;-2.80;87.70;;;;;;5009159;28;20119;-84
2021/12/26 09:39:22;;;;;;;11.63;4.68;;;-2.80;87.50;;;;;;5008523;28;20101;-83
2021/12/26 09:41:49;;;;;;;12.13;4.63;;;-2.70;87.50;;;;;;4992342;28;20514;-83
2021/12/26 09:44:15;;;;;;;11.30;4.60;;;-2.70;87.40;;;;;;5008032;28;20040;-83
2021/12/26 09:46:41;;;;;;;9.52;4.88;;;-2.60;87.40;;;;;;5005316;28;20034;-84
2021/12/26 09:49:09;;;;;;;8.98;4.68;;;-2.60;87.70;;;;;;4989553;28;20638;-83
2021/12/26 09:51:35;;;;;;;12.60;4.20;;;-2.50;87.50;;;;;;4973054;28;20038;-84
2021/12/26 09:54:03;;;;;;;9.20;4.05;;;-2.40;87.30;;;;;;4988660;28;20082;-83
2021/12/26 09:56:29;;;;;;;10.32;4.35;;;-2.30;87.00;;;;;;4973803;28;20038;-84
2021/12/26 09:59:04;;;;;;;9.35;4.10;;;-2.30;87.00;;;;;;4976507;28;20046;-84
2021/12/26 10:01:49;;;;;;;9.98;4.30;;;-2.20;86.60;;;;;;4976158;28;20539;-85
2021/12/26 10:04:38;;;;;;;10.77;4.53;;;-2.20;86.30;;;;;;5003628;28;20073;-84
2021/12/26 10:07:18;;;;;;;9.98;4.57;;;-2.10;86.20;;;;;;5012445;28;20038;-84
2021/12/26 10:09:47;;;;;;;10.50;4.32;;;-2.00;85.40;;;;;;5012246;28;20048;-84
2021/12/26 10:12:14;;;;;;;11.23;4.82;;;-2.00;85.70;;;;;;5012160;28;20042;-85
2021/12/26 10:14:43;;;;;;;11.07;4.80;;;-1.90;85.60;;;;;;5011812;28;20180;-85
2021/12/26 10:17:14;;;;;;;10.47;4.67;;;-1.80;86.00;;;;;;4971126;28;1188635;-85
2021/12/26 10:19:46;;;;;;;8.82;4.78;;;-1.70;85.50;;;;;;5013563;28;20503;-85
2021/12/26 10:22:14;;;;;;;12.00;4.82;;;-1.60;84.90;;;;;;5012070;28;20457;-85
2021/12/26 10:24:43;;;;;;;9.50;4.10;;;-1.50;84.90;;;;;;5012913;28;20063;-85
2021/12/26 10:27:15;;;;;;;10.07;4.70;;;-1.40;84.40;;;;;;5013584;28;20045;-85
2021/12/26 10:29:43;;;;;;;10.05;4.57;;;-1.30;84.30;;;;;;5013142;28;20045;-85
2021/12/26 10:32:18;;;;;;;10.60;4.68;;;-1.20;84.10;;;;;;4996806;28;20038;-85
2021/12/26 10:35:07;;;;;;;9.48;4.53;;;-1.10;83.80;;;;;;5013093;28;20042;-84
2021/12/26 10:37:39;;;;;;;12.05;5.75;;;-1.00;83.70;;;;;;5013218;28;20054;-85
2021/12/26 10:40:11;;;;;;;9.73;4.00;;;-0.90;83.20;;;;;;5013340;28;20172;-85
2021/12/26 10:42:40;;;;;;;9.40;4.60;;;-0.70;82.90;;;;;;5012861;28;20276;-84
2021/12/26 10:45:21;;;;;;;9.48;4.68;;;-0.60;82.80;;;;;;5012942;28;20046;-85
2021/12/26 10:47:55;;;;;;;9.90;5.18;;;-0.50;82.90;;;;;;5012614;28;20080;-85
2021/12/26 10:50:24;;;;;;;11.07;4.95;;;-0.30;82.20;;;;;;5013002;28;20042;-85
2021/12/26 10:53:00;;;;;;;11.15;4.97;;;-0.20;82.40;;;;;;5012739;28;20406;-85
2021/12/26 10:55:33;;;;;;;11.05;4.78;;;0.00;82.20;;;;;;5012581;28;20037;-85
2021/12/26 10:58:03;;;;;;;;;;;0.10;82.30;;;;;;5013031;28;20100;-85
2021/12/26 11:00:37;;;;;;;10.45;4.85;;;0.30;82.20;;;;;;4996494;28;19932;-85
2021/12/26 11:03:08;;;;;;;10.18;4.60;;;0.40;81.50;;;;;;5011053;28;20046;-85
2021/12/26 11:05:38;;;;;;;11.02;4.70;;;0.60;80.60;;;;;;5012478;28;20073;-85
2021/12/26 11:08:11;;;;;;;9.45;4.68;;;0.70;80.20;;;;;;4996096;28;20075;-85
2021/12/26 11:10:45;;;;;;;9.65;4.88;;;0.90;79.60;;;;;;4992973;28;20180;-85
2021/12/26 11:13:26;;;;;;;11.10;4.93;;;1.00;79.20;;;;;;5003626;28;20034;-85
2021/12/26 11:15:57;;;;;;;11.73;4.53;;;1.10;79.40;;;;;;4995653;28;20053;-85
2021/12/26 11:18:23;;;;;;;9.90;4.60;;;1.30;78.50;;;;;;4996098;28;20045;-86
2021/12/26 11:21:02;;;;;;;9.77;4.50;;;1.40;77.80;;;;;;5012702;28;20384;-85
2021/12/26 11:23:30;;;;;;;11.07;4.55;;;1.50;77.30;;;;;;4996751;28;20518;-85
2021/12/26 11:26:03;;;;;;;15.93;4.82;;;1.60;77.10;;;;;;5012205;28;20034;-86
2021/12/26 11:28:31;;;;;;;10.65;4.65;;;1.80;76.10;;;;;;4996269;28;20511;-86
2021/12/26 11:31:07;;;;;;;9.60;5.10;;;1.80;75.30;;;;;;4996025;28;20042;-85
2021/12/26 11:33:33;;;;;;;10.05;5.10;;;2.00;75.60;;;;;;5027987;28;20046;-86
2021/12/26 11:36:00;;;;;;;10.15;5.13;;;2.20;75.60;;;;;;4995873;28;20530;-85
2021/12/26 11:38:28;;;;;;;10.68;5.47;;;2.40;75.70;;;;;;5012045;28;20074;-86
2021/12/26 11:41:34;;;;;;;10.98;6.18;;;2.60;74.50;;;;;;5028641;28;20038;-85
2021/12/26 11:44:27;;;;;;;8.80;4.60;;;2.70;74.40;;;;;;4980145;28;20143;-85
2021/12/26 11:47:29;;;;;;;10.52;4.80;;;2.90;73.50;;;;;;5028431;28;20053;-86
2021/12/26 11:50:15;;;;;;;10.40;5.68;;;3.00;71.70;;;;;;4995477;28;20683;-85
2021/12/26 11:52:53;;;;;;;9.98;5.20;;;3.50;74.40;;;;;;5028200;28;20046;-85
2021/12/26 11:55:41;;;;;;;10.75;5.40;;;3.90;73.40;;;;;;4994466;28;20034;-85
2021/12/26 11:58:09;;;;;;;10.27;5.30;;;4.60;70.60;;;;;;5028271;28;20045;-85
2021/12/26 12:00:38;;;;;;;10.50;5.00;;;5.70;69.90;;;;;;4995151;28;20410;-85
2021/12/26 12:03:06;;;;;;;9.57;5.13;;;6.60;66.40;;;;;;5027460;28;20038;-86
2021/12/26 12:05:39;;;;;;;9.77;4.70;;;7.50;61.50;;;;;;5028070;28;20038;-85
2021/12/26 12:08:11;;;;;;;9.68;4.85;;;8.30;58.10;;;;;;5019987;28;20117;-85
2021/12/26 12:10:55;;;;;;;10.02;4.95;;;9.20;56.30;;;;;;5011265;28;20526;-82
2021/12/26 12:13:26;;;;;;;9.13;4.90;;;10.20;55.80;;;;;;5011082;28;20081;-83
2021/12/26 12:16:07;;;;;;;9.43;5.28;;;11.20;53.00;;;;;;5011099;28;20049;-83
2021/12/26 12:18:54;;;;;;;9.63;5.30;;;11.70;49.80;;;;;;5010972;28;20089;-82
2021/12/26 12:21:40;;;;;;;9.13;4.95;;;12.20;49.50;;;;;;5010480;28;20045;-83
2021/12/26 12:24:18;;;;;;;10.50;5.03;;;12.70;47.60;;;;;;5001182;28;20038;-83
2021/12/26 12:26:55;;;;;;;8.90;4.65;;;13.30;46.00;;;;;;4993701;28;20042;-83
2021/12/26 12:29:24;;;;;;;9.23;5.35;;;13.80;46.10;;;;;;4992976;28;20049;-84
2021/12/26 12:32:08;;;;;;;10.73;5.30;;;14.40;45.70;;;;;;4998467;28;20041;-83
2021/12/26 12:35:14;;;;;;;11.25;6.40;;;15.10;43.60;;;;;;5010158;28;20037;-83
2021/12/26 12:37:48;;;;;;;9.45;5.25;;;15.60;41.10;;;;;;5010654;28;20041;-84
2021/12/26 12:40:28;;;;;;;9.13;5.28;;;16.20;42.20;;;;;;5012455;28;20463;-84
2021/12/26 12:43:00;;;;;;;11.35;6.65;;;16.80;40.90;;;;;;5010808;28;20569;-84
2021/12/26 12:45:27;;;;;;;9.38;5.50;;;16.90;39.90;;;;;;4993021;28;20044;-84
2021/12/26 12:48:30;;;;;;;8.88;4.50;;;17.00;40.90;;;;;;5011053;28;20395;-85
2021/12/26 12:51:18;;;;;;;8.95;4.93;;;17.40;36.20;;;;;;5010822;28;20041;-85
2021/12/26 12:53:48;;;;;;;8.82;4.65;;;17.70;38.80;;;;;;5016472;28;20056;-85
2021/12/26 12:56:29;;;;;;;8.15;4.95;;;18.10;37.80;;;;;;4994094;28;20145;-85